sensor_id;sensor_type;location;lat;lon;timestamp;P1;durP1;ratioP1;P2;durP2;ratioP2
20699;SDS011;10511;51.232;9.420;2022-09-09T00:00:44;0.80;;;0.80;;
20699;SDS011;10511;51.232;9.420;2022-09-09T00:03:17;0.70;;;0.70;;
20699;SDS011;10511;51.232;9.420;2022-09-09T00:05:48;0.70;;;0.70;;
20699;SDS011;10511;51.232;9.420;2022-09-09T00:08:29;0.70;;;0.70;;
20699;SDS011;10511;51.232;9.420;2022-09-09T00:11:04;0.80;;;0.80;;
20699;SDS011;10511;51.232;9.420;2022-09-09T00:13:33;0.70;;;0.70;;
20699;SDS011;10511;51.232;9.420;2022-09-09T00:16:07;0.80;;;0.80;;
20699;SDS011;10511;51.232;9.420;2022-09-09T00:18:50;0.80;;;0.80;;
20699;SDS011;10511;51.232;9.420;2022-09-09T00:21:29;0.80;;;0.80;;
20699;SDS011;10511;51.232;9.420;2022-09-09T00:24:00;0.80;;;0.80;;
20699;SDS011;10511;51.232;9.420;2022-09-09T00:26:40;0.70;;;0.70;;
20699;SDS011;10511;51.232;9.420;2022-09-09T00:29:10;0.70;;;0.70;;
20699;SDS011;10511;51.232;9.420;2022-09-09T00:31:46;0.70;;;0.70;;
20699;SDS011;10511;51.232;9.420;2022-09-09T00:34:15;0.70;;;0.70;;
20699;SDS011;10511;51.232;9.420;2022-09-09T00:36:46;0.70;;;0.70;;
20699;SDS011;10511;51.232;9.420;2022-09-09T00:39:20;0.70;;;0.70;;
20699;SDS011;10511;51.232;9.420;2022-09-09T00:41:55;0.70;;;0.70;;
20699;SDS011;10511;51.232;9.420;2022-09-09T00:44:34;0.70;;;0.70;;
20699;SDS011;10511;51.232;9.420;2022-09-09T00:47:12;0.70;;;0.70;;
20699;SDS011;10511;51.232;9.420;2022-09-09T00:49:55;0.70;;;0.70;;
20699;SDS011;10511;51.232;9.420;2022-09-09T00:52:31;0.70;;;0.70;;
20699;SDS011;10511;51.232;9.420;2022-09-09T00:55:07;0.70;;;0.70;;
20699;SDS011;10511;51.232;9.420;2022-09-09T00:57:41;0.70;;;0.70;;
20699;SDS011;10511;51.232;9.420;2022-09-09T01:00:18;0.70;;;0.70;;
20699;SDS011;10511;51.232;9.420;2022-09-09T01:02:51;0.70;;;0.70;;
20699;SDS011;10511;51.232;9.420;2022-09-09T01:05:27;0.70;;;0.70;;
20699;SDS011;10511;51.232;9.420;2022-09-09T01:08:02;0.60;;;0.60;;
20699;SDS011;10511;51.232;9.420;2022-09-09T01:10:41;0.60;;;0.60;;
20699;SDS011;10511;51.232;9.420;2022-09-09T01:13:17;0.60;;;0.60;;
20699;SDS011;10511;51.232;9.420;2022-09-09T01:15:48;0.70;;;0.70;;
20699;SDS011;10511;51.232;9.420;2022-09-09T01:18:19;0.70;;;0.70;;
20699;SDS011;10511;51.232;9.420;2022-09-09T01:20:53;0.70;;;0.70;;
20699;SDS011;10511;51.232;9.420;2022-09-09T01:23:30;0.80;;;0.80;;
20699;SDS011;10511;51.232;9.420;2022-09-09T01:26:14;0.70;;;0.70;;
20699;SDS011;10511;51.232;9.420;2022-09-09T01:28:46;0.60;;;0.60;;
20699;SDS011;10511;51.232;9.420;2022-09-09T01:31:16;0.70;;;0.70;;
20699;SDS011;10511;51.232;9.420;2022-09-09T01:33:46;0.80;;;0.80;;
20699;SDS011;10511;51.232;9.420;2022-09-09T01:36:14;0.70;;;0.70;;
20699;SDS011;10511;51.232;9.420;2022-09-09T01:38:50;0.70;;;0.70;;
20699;SDS011;10511;51.232;9.420;2022-09-09T01:41:18;0.70;;;0.70;;
20699;SDS011;10511;51.232;9.420;2022-09-09T01:43:46;0.70;;;0.70;;
20699;SDS011;10511;51.232;9.420;2022-09-09T01:46:14;0.70;;;0.70;;
20699;SDS011;10511;51.232;9.420;2022-09-09T01:48:42;0.70;;;0.70;;
20699;SDS011;10511;51.232;9.420;2022-09-09T01:51:11;0.60;;;0.60;;
20699;SDS011;10511;51.232;9.420;2022-09-09T01:53:38;0.60;;;0.60;;
20699;SDS011;10511;51.232;9.420;2022-09-09T01:56:10;0.80;;;0.80;;
20699;SDS011;10511;51.232;9.420;2022-09-09T01:58:53;0.60;;;0.60;;
20699;SDS011;10511;51.232;9.420;2022-09-09T02:01:31;0.70;;;0.70;;
20699;SDS011;10511;51.232;9.420;2022-09-09T02:04:11;0.70;;;0.70;;
20699;SDS011;10511;51.232;9.420;2022-09-09T02:06:49;0.60;;;0.60;;
20699;SDS011;10511;51.232;9.420;2022-09-09T02:09:20;0.60;;;0.60;;
20699;SDS011;10511;51.232;9.420;2022-09-09T02:11:50;0.70;;;0.70;;
20699;SDS011;10511;51.232;9.420;2022-09-09T02:14:27;0.60;;;0.60;;
20699;SDS011;10511;51.232;9.420;2022-09-09T02:17:01;0.60;;;0.60;;
20699;SDS011;10511;51.232;9.420;2022-09-09T02:19:35;0.80;;;0.80;;
20699;SDS011;10511;51.232;9.420;2022-09-09T02:22:05;0.60;;;0.60;;
20699;SDS011;10511;51.232;9.420;2022-09-09T02:24:34;0.70;;;0.70;;
20699;SDS011;10511;51.232;9.420;2022-09-09T02:27:03;0.80;;;0.80;;
20699;SDS011;10511;51.232;9.420;2022-09-09T02:29:36;0.70;;;0.70;;
20699;SDS011;10511;51.232;9.420;2022-09-09T02:32:07;0.70;;;0.70;;
20699;SDS011;10511;51.232;9.420;2022-09-09T02:34:39;0.70;;;0.70;;
20699;SDS011;10511;51.232;9.420;2022-09-09T02:37:11;0.70;;;0.70;;
20699;SDS011;10511;51.232;9.420;2022-09-09T02:39:39;0.80;;;0.80;;
20699;SDS011;10511;51.232;9.420;2022-09-09T02:42:06;0.80;;;0.80;;
20699;SDS011;10511;51.232;9.420;2022-09-09T02:44:35;0.80;;;0.80;;
20699;SDS011;10511;51.232;9.420;2022-09-09T02:47:07;0.80;;;0.80;;
20699;SDS011;10511;51.232;9.420;2022-09-09T02:49:47;0.80;;;0.80;;
20699;SDS011;10511;51.232;9.420;2022-09-09T02:52:25;0.80;;;0.80;;
20699;SDS011;10511;51.232;9.420;2022-09-09T02:54:57;0.73;;;0.73;;
20699;SDS011;10511;51.232;9.420;2022-09-09T02:57:31;0.70;;;0.70;;
20699;SDS011;10511;51.232;9.420;2022-09-09T03:00:03;0.80;;;0.80;;
20699;SDS011;10511;51.232;9.420;2022-09-09T03:02:31;0.80;;;0.80;;
20699;SDS011;10511;51.232;9.420;2022-09-09T03:04:58;0.77;;;0.77;;
20699;SDS011;10511;51.232;9.420;2022-09-09T03:07:25;0.83;;;0.83;;
20699;SDS011;10511;51.232;9.420;2022-09-09T03:09:52;0.80;;;0.80;;
20699;SDS011;10511;51.232;9.420;2022-09-09T03:12:20;0.80;;;0.80;;
20699;SDS011;10511;51.232;9.420;2022-09-09T03:14:47;0.70;;;0.70;;
20699;SDS011;10511;51.232;9.420;2022-09-09T03:17:15;0.70;;;0.70;;
20699;SDS011;10511;51.232;9.420;2022-09-09T03:19:42;0.70;;;0.70;;
20699;SDS011;10511;51.232;9.420;2022-09-09T03:22:10;0.70;;;0.70;;
20699;SDS011;10511;51.232;9.420;2022-09-09T03:24:38;0.70;;;0.70;;
20699;SDS011;10511;51.232;9.420;2022-09-09T03:27:05;0.70;;;0.70;;
20699;SDS011;10511;51.232;9.420;2022-09-09T03:29:32;0.70;;;0.70;;
20699;SDS011;10511;51.232;9.420;2022-09-09T03:32:00;0.70;;;0.70;;
20699;SDS011;10511;51.232;9.420;2022-09-09T03:34:29;0.70;;;0.70;;
20699;SDS011;10511;51.232;9.420;2022-09-09T03:36:56;0.70;;;0.70;;
20699;SDS011;10511;51.232;9.420;2022-09-09T03:39:23;0.70;;;0.70;;
20699;SDS011;10511;51.232;9.420;2022-09-09T03:41:50;0.70;;;0.70;;
20699;SDS011;10511;51.232;9.420;2022-09-09T03:44:17;0.70;;;0.70;;
20699;SDS011;10511;51.232;9.420;2022-09-09T03:46:43;0.70;;;0.70;;
20699;SDS011;10511;51.232;9.420;2022-09-09T03:49:10;0.70;;;0.70;;
20699;SDS011;10511;51.232;9.420;2022-09-09T03:51:39;0.70;;;0.70;;
20699;SDS011;10511;51.232;9.420;2022-09-09T03:54:06;0.70;;;0.70;;
20699;SDS011;10511;51.232;9.420;2022-09-09T03:56:35;0.80;;;0.80;;
20699;SDS011;10511;51.232;9.420;2022-09-09T03:59:02;0.70;;;0.70;;
20699;SDS011;10511;51.232;9.420;2022-09-09T04:01:30;0.70;;;0.70;;
20699;SDS011;10511;51.232;9.420;2022-09-09T04:03:57;0.80;;;0.80;;
20699;SDS011;10511;51.232;9.420;2022-09-09T04:06:24;0.70;;;0.70;;
20699;SDS011;10511;51.232;9.420;2022-09-09T04:08:52;0.60;;;0.60;;
20699;SDS011;10511;51.232;9.420;2022-09-09T04:11:53;0.73;;;0.73;;
20699;SDS011;10511;51.232;9.420;2022-09-09T04:14:29;0.70;;;0.70;;
20699;SDS011;10511;51.232;9.420;2022-09-09T04:16:56;0.70;;;0.70;;
20699;SDS011;10511;51.232;9.420;2022-09-09T04:19:24;0.73;;;0.73;;
20699;SDS011;10511;51.232;9.420;2022-09-09T04:21:51;0.80;;;0.80;;
20699;SDS011;10511;51.232;9.420;2022-09-09T04:24:20;0.80;;;0.80;;
20699;SDS011;10511;51.232;9.420;2022-09-09T04:26:46;0.80;;;0.80;;
20699;SDS011;10511;51.232;9.420;2022-09-09T04:29:14;0.80;;;0.80;;
20699;SDS011;10511;51.232;9.420;2022-09-09T04:31:40;0.60;;;0.60;;
20699;SDS011;10511;51.232;9.420;2022-09-09T04:34:07;0.80;;;0.80;;
20699;SDS011;10511;51.232;9.420;2022-09-09T04:36:35;0.70;;;0.70;;
20699;SDS011;10511;51.232;9.420;2022-09-09T04:39:02;0.80;;;0.80;;
20699;SDS011;10511;51.232;9.420;2022-09-09T04:41:30;0.70;;;0.70;;
20699;SDS011;10511;51.232;9.420;2022-09-09T04:43:57;0.70;;;0.70;;
20699;SDS011;10511;51.232;9.420;2022-09-09T04:46:24;0.80;;;0.80;;
20699;SDS011;10511;51.232;9.420;2022-09-09T04:48:52;0.80;;;0.80;;
20699;SDS011;10511;51.232;9.420;2022-09-09T04:51:19;0.80;;;0.80;;
20699;SDS011;10511;51.232;9.420;2022-09-09T04:53:46;0.80;;;0.80;;
20699;SDS011;10511;51.232;9.420;2022-09-09T04:56:15;0.70;;;0.70;;
20699;SDS011;10511;51.232;9.420;2022-09-09T04:58:44;0.80;;;0.80;;
20699;SDS011;10511;51.232;9.420;2022-09-09T05:01:12;0.70;;;0.70;;
20699;SDS011;10511;51.232;9.420;2022-09-09T05:03:40;0.70;;;0.70;;
20699;SDS011;10511;51.232;9.420;2022-09-09T05:06:08;0.70;;;0.70;;
20699;SDS011;10511;51.232;9.420;2022-09-09T05:08:36;0.70;;;0.70;;
20699;SDS011;10511;51.232;9.420;2022-09-09T05:11:04;0.80;;;0.80;;
20699;SDS011;10511;51.232;9.420;2022-09-09T05:13:38;0.70;;;0.70;;
20699;SDS011;10511;51.232;9.420;2022-09-09T05:16:06;0.70;;;0.70;;
20699;SDS011;10511;51.232;9.420;2022-09-09T05:18:36;0.80;;;0.80;;
20699;SDS011;10511;51.232;9.420;2022-09-09T05:21:03;0.70;;;0.70;;
20699;SDS011;10511;51.232;9.420;2022-09-09T05:23:30;0.70;;;0.70;;
20699;SDS011;10511;51.232;9.420;2022-09-09T05:25:59;0.70;;;0.70;;
20699;SDS011;10511;51.232;9.420;2022-09-09T05:28:26;0.60;;;0.60;;
20699;SDS011;10511;51.232;9.420;2022-09-09T05:30:57;0.70;;;0.70;;
20699;SDS011;10511;51.232;9.420;2022-09-09T05:33:26;0.70;;;0.70;;
20699;SDS011;10511;51.232;9.420;2022-09-09T05:35:57;0.70;;;0.70;;
20699;SDS011;10511;51.232;9.420;2022-09-09T05:38:25;0.70;;;0.70;;
20699;SDS011;10511;51.232;9.420;2022-09-09T05:40:52;0.70;;;0.70;;
20699;SDS011;10511;51.232;9.420;2022-09-09T05:43:19;0.70;;;0.70;;
20699;SDS011;10511;51.232;9.420;2022-09-09T05:45:46;0.70;;;0.70;;
20699;SDS011;10511;51.232;9.420;2022-09-09T05:48:13;0.70;;;0.70;;
20699;SDS011;10511;51.232;9.420;2022-09-09T05:50:42;0.70;;;0.70;;
20699;SDS011;10511;51.232;9.420;2022-09-09T05:53:10;0.63;;;0.63;;
20699;SDS011;10511;51.232;9.420;2022-09-09T05:55:37;0.70;;;0.70;;
20699;SDS011;10511;51.232;9.420;2022-09-09T05:58:04;0.60;;;0.60;;
20699;SDS011;10511;51.232;9.420;2022-09-09T06:00:31;0.60;;;0.60;;
20699;SDS011;10511;51.232;9.420;2022-09-09T06:02:57;0.60;;;0.60;;
20699;SDS011;10511;51.232;9.420;2022-09-09T06:05:25;0.60;;;0.60;;
20699;SDS011;10511;51.232;9.420;2022-09-09T06:07:54;0.60;;;0.60;;
20699;SDS011;10511;51.232;9.420;2022-09-09T06:10:21;0.60;;;0.60;;
20699;SDS011;10511;51.232;9.420;2022-09-09T06:12:48;0.70;;;0.70;;
20699;SDS011;10511;51.232;9.420;2022-09-09T06:15:19;0.60;;;0.60;;
20699;SDS011;10511;51.232;9.420;2022-09-09T06:17:46;0.70;;;0.70;;
20699;SDS011;10511;51.232;9.420;2022-09-09T06:20:14;0.70;;;0.70;;
20699;SDS011;10511;51.232;9.420;2022-09-09T06:22:41;0.80;;;0.80;;
20699;SDS011;10511;51.232;9.420;2022-09-09T06:25:09;0.60;;;0.60;;
20699;SDS011;10511;51.232;9.420;2022-09-09T06:27:37;0.63;;;0.63;;
20699;SDS011;10511;51.232;9.420;2022-09-09T06:30:04;0.70;;;0.70;;
20699;SDS011;10511;51.232;9.420;2022-09-09T06:32:32;0.70;;;0.70;;
20699;SDS011;10511;51.232;9.420;2022-09-09T06:35:01;0.70;;;0.70;;
20699;SDS011;10511;51.232;9.420;2022-09-09T06:37:29;0.63;;;0.63;;
20699;SDS011;10511;51.232;9.420;2022-09-09T06:39:56;0.70;;;0.70;;
20699;SDS011;10511;51.232;9.420;2022-09-09T06:42:24;0.60;;;0.60;;
20699;SDS011;10511;51.232;9.420;2022-09-09T06:44:51;0.63;;;0.63;;
20699;SDS011;10511;51.232;9.420;2022-09-09T06:47:18;0.70;;;0.70;;
20699;SDS011;10511;51.232;9.420;2022-09-09T06:49:45;0.60;;;0.60;;
20699;SDS011;10511;51.232;9.420;2022-09-09T06:52:12;0.70;;;0.70;;
20699;SDS011;10511;51.232;9.420;2022-09-09T06:54:39;0.77;;;0.77;;
20699;SDS011;10511;51.232;9.420;2022-09-09T06:57:05;0.70;;;0.70;;
20699;SDS011;10511;51.232;9.420;2022-09-09T06:59:34;0.70;;;0.70;;
20699;SDS011;10511;51.232;9.420;2022-09-09T07:02:01;0.60;;;0.60;;
20699;SDS011;10511;51.232;9.420;2022-09-09T07:04:28;0.70;;;0.70;;
20699;SDS011;10511;51.232;9.420;2022-09-09T07:06:55;0.60;;;0.60;;
20699;SDS011;10511;51.232;9.420;2022-09-09T07:09:21;0.70;;;0.70;;
20699;SDS011;10511;51.232;9.420;2022-09-09T07:11:49;0.70;;;0.70;;
20699;SDS011;10511;51.232;9.420;2022-09-09T07:14:17;0.70;;;0.70;;
20699;SDS011;10511;51.232;9.420;2022-09-09T07:16:46;0.70;;;0.70;;
20699;SDS011;10511;51.232;9.420;2022-09-09T07:19:13;0.60;;;0.60;;
20699;SDS011;10511;51.232;9.420;2022-09-09T07:21:41;0.70;;;0.70;;
20699;SDS011;10511;51.232;9.420;2022-09-09T07:24:08;0.60;;;0.60;;
20699;SDS011;10511;51.232;9.420;2022-09-09T07:26:36;0.70;;;0.70;;
20699;SDS011;10511;51.232;9.420;2022-09-09T07:29:04;0.70;;;0.70;;
20699;SDS011;10511;51.232;9.420;2022-09-09T07:31:31;0.70;;;0.70;;
20699;SDS011;10511;51.232;9.420;2022-09-09T07:34:02;0.70;;;0.70;;
20699;SDS011;10511;51.232;9.420;2022-09-09T07:36:30;0.60;;;0.60;;
20699;SDS011;10511;51.232;9.420;2022-09-09T07:38:58;0.70;;;0.70;;
20699;SDS011;10511;51.232;9.420;2022-09-09T07:41:27;0.60;;;0.60;;
20699;SDS011;10511;51.232;9.420;2022-09-09T07:43:57;0.77;;;0.77;;
20699;SDS011;10511;51.232;9.420;2022-09-09T07:46:24;0.80;;;0.80;;
20699;SDS011;10511;51.232;9.420;2022-09-09T07:48:53;0.70;;;0.70;;
20699;SDS011;10511;51.232;9.420;2022-09-09T07:51:23;0.70;;;0.70;;
20699;SDS011;10511;51.232;9.420;2022-09-09T07:53:52;0.60;;;0.60;;
20699;SDS011;10511;51.232;9.420;2022-09-09T07:56:22;0.70;;;0.70;;
20699;SDS011;10511;51.232;9.420;2022-09-09T07:58:50;0.60;;;0.60;;
20699;SDS011;10511;51.232;9.420;2022-09-09T08:01:19;0.70;;;0.70;;
20699;SDS011;10511;51.232;9.420;2022-09-09T08:03:52;0.70;;;0.70;;
20699;SDS011;10511;51.232;9.420;2022-09-09T08:06:20;0.70;;;0.70;;
20699;SDS011;10511;51.232;9.420;2022-09-09T08:08:51;0.70;;;0.70;;
20699;SDS011;10511;51.232;9.420;2022-09-09T08:11:21;0.60;;;0.60;;
20699;SDS011;10511;51.232;9.420;2022-09-09T08:13:50;0.70;;;0.70;;
20699;SDS011;10511;51.232;9.420;2022-09-09T08:16:18;0.60;;;0.60;;
20699;SDS011;10511;51.232;9.420;2022-09-09T08:18:47;0.60;;;0.60;;
20699;SDS011;10511;51.232;9.420;2022-09-09T08:21:15;0.60;;;0.60;;
20699;SDS011;10511;51.232;9.420;2022-09-09T08:23:45;0.60;;;0.60;;
20699;SDS011;10511;51.232;9.420;2022-09-09T08:26:14;0.60;;;0.60;;
20699;SDS011;10511;51.232;9.420;2022-09-09T08:28:43;0.60;;;0.60;;
20699;SDS011;10511;51.232;9.420;2022-09-09T08:31:10;0.60;;;0.60;;
20699;SDS011;10511;51.232;9.420;2022-09-09T08:33:38;0.60;;;0.60;;
20699;SDS011;10511;51.232;9.420;2022-09-09T08:36:08;0.70;;;0.70;;
20699;SDS011;10511;51.232;9.420;2022-09-09T08:38:37;0.70;;;0.70;;
20699;SDS011;10511;51.232;9.420;2022-09-09T08:41:11;0.67;;;0.67;;
20699;SDS011;10511;51.232;9.420;2022-09-09T08:44:11;0.70;;;0.70;;
20699;SDS011;10511;51.232;9.420;2022-09-09T08:46:45;0.60;;;0.60;;
20699;SDS011;10511;51.232;9.420;2022-09-09T08:49:31;0.60;;;0.60;;
20699;SDS011;10511;51.232;9.420;2022-09-09T08:52:12;0.60;;;0.60;;
20699;SDS011;10511;51.232;9.420;2022-09-09T08:54:43;0.60;;;0.60;;
20699;SDS011;10511;51.232;9.420;2022-09-09T08:57:11;0.70;;;0.70;;
20699;SDS011;10511;51.232;9.420;2022-09-09T08:59:44;0.60;;;0.60;;
20699;SDS011;10511;51.232;9.420;2022-09-09T09:02:14;0.60;;;0.60;;
20699;SDS011;10511;51.232;9.420;2022-09-09T09:04:47;0.60;;;0.60;;
20699;SDS011;10511;51.232;9.420;2022-09-09T09:07:28;0.70;;;0.70;;
20699;SDS011;10511;51.232;9.420;2022-09-09T09:10:04;0.60;;;0.60;;
20699;SDS011;10511;51.232;9.420;2022-09-09T09:12:39;0.70;;;0.70;;
20699;SDS011;10511;51.232;9.420;2022-09-09T09:15:14;0.60;;;0.60;;
20699;SDS011;10511;51.232;9.420;2022-09-09T09:17:46;0.70;;;0.70;;
20699;SDS011;10511;51.232;9.420;2022-09-09T09:20:14;0.60;;;0.60;;
20699;SDS011;10511;51.232;9.420;2022-09-09T09:22:45;0.60;;;0.60;;
20699;SDS011;10511;51.232;9.420;2022-09-09T09:25:16;0.60;;;0.60;;
20699;SDS011;10511;51.232;9.420;2022-09-09T09:27:48;0.60;;;0.60;;
20699;SDS011;10511;51.232;9.420;2022-09-09T09:30:22;0.60;;;0.60;;
20699;SDS011;10511;51.232;9.420;2022-09-09T09:32:52;0.60;;;0.60;;
20699;SDS011;10511;51.232;9.420;2022-09-09T09:35:22;0.70;;;0.70;;
20699;SDS011;10511;51.232;9.420;2022-09-09T09:37:49;0.60;;;0.60;;
20699;SDS011;10511;51.232;9.420;2022-09-09T09:40:17;0.60;;;0.60;;
20699;SDS011;10511;51.232;9.420;2022-09-09T09:42:49;0.60;;;0.60;;
20699;SDS011;10511;51.232;9.420;2022-09-09T09:45:23;0.60;;;0.60;;
20699;SDS011;10511;51.232;9.420;2022-09-09T09:47:59;0.50;;;0.50;;
20699;SDS011;10511;51.232;9.420;2022-09-09T09:50:28;0.73;;;0.73;;
20699;SDS011;10511;51.232;9.420;2022-09-09T09:52:57;0.60;;;0.60;;
20699;SDS011;10511;51.232;9.420;2022-09-09T09:55:25;0.50;;;0.50;;
20699;SDS011;10511;51.232;9.420;2022-09-09T09:57:59;0.60;;;0.60;;
20699;SDS011;10511;51.232;9.420;2022-09-09T10:00:29;0.60;;;0.60;;
20699;SDS011;10511;51.232;9.420;2022-09-09T10:02:56;0.60;;;0.60;;
20699;SDS011;10511;51.232;9.420;2022-09-09T10:05:25;0.60;;;0.60;;
20699;SDS011;10511;51.232;9.420;2022-09-09T10:08:01;0.60;;;0.60;;
20699;SDS011;10511;51.232;9.420;2022-09-09T10:10:34;0.60;;;0.60;;
20699;SDS011;10511;51.232;9.420;2022-09-09T10:13:15;0.60;;;0.60;;
20699;SDS011;10511;51.232;9.420;2022-09-09T10:15:50;0.60;;;0.60;;
20699;SDS011;10511;51.232;9.420;2022-09-09T10:18:33;0.60;;;0.60;;
20699;SDS011;10511;51.232;9.420;2022-09-09T10:21:16;0.60;;;0.60;;
20699;SDS011;10511;51.232;9.420;2022-09-09T10:23:57;0.60;;;0.60;;
20699;SDS011;10511;51.232;9.420;2022-09-09T10:26:40;0.60;;;0.60;;
20699;SDS011;10511;51.232;9.420;2022-09-09T10:32:09;0.60;;;0.60;;
20699;SDS011;10511;51.232;9.420;2022-09-09T10:34:54;0.60;;;0.60;;
20699;SDS011;10511;51.232;9.420;2022-09-09T10:37:28;0.60;;;0.60;;
20699;SDS011;10511;51.232;9.420;2022-09-09T10:40:12;0.60;;;0.60;;
20699;SDS011;10511;51.232;9.420;2022-09-09T10:42:49;0.60;;;0.60;;
20699;SDS011;10511;51.232;9.420;2022-09-09T10:45:17;0.60;;;0.60;;
20699;SDS011;10511;51.232;9.420;2022-09-09T10:48:01;0.60;;;0.60;;
20699;SDS011;10511;51.232;9.420;2022-09-09T10:50:53;0.60;;;0.60;;
20699;SDS011;10511;51.232;9.420;2022-09-09T10:53:30;0.60;;;0.60;;
20699;SDS011;10511;51.232;9.420;2022-09-09T10:56:05;0.60;;;0.60;;
20699;SDS011;10511;51.232;9.420;2022-09-09T10:58:35;0.60;;;0.60;;
20699;SDS011;10511;51.232;9.420;2022-09-09T11:01:10;0.60;;;0.60;;
20699;SDS011;10511;51.232;9.420;2022-09-09T11:03:44;0.57;;;0.57;;
20699;SDS011;10511;51.232;9.420;2022-09-09T11:06:17;0.60;;;0.60;;
20699;SDS011;10511;51.232;9.420;2022-09-09T11:08:46;0.57;;;0.57;;
20699;SDS011;10511;51.232;9.420;2022-09-09T11:11:15;0.50;;;0.50;;
20699;SDS011;10511;51.232;9.420;2022-09-09T11:13:46;0.60;;;0.60;;
20699;SDS011;10511;51.232;9.420;2022-09-09T11:16:22;0.50;;;0.50;;
20699;SDS011;10511;51.232;9.420;2022-09-09T11:18:55;0.60;;;0.60;;
20699;SDS011;10511;51.232;9.420;2022-09-09T11:21:27;0.60;;;0.60;;
20699;SDS011;10511;51.232;9.420;2022-09-09T11:23:57;0.60;;;0.60;;
20699;SDS011;10511;51.232;9.420;2022-09-09T11:26:29;0.60;;;0.60;;
20699;SDS011;10511;51.232;9.420;2022-09-09T11:29:04;0.50;;;0.50;;
20699;SDS011;10511;51.232;9.420;2022-09-09T11:31:55;0.50;;;0.50;;
20699;SDS011;10511;51.232;9.420;2022-09-09T11:34:34;0.60;;;0.60;;
20699;SDS011;10511;51.232;9.420;2022-09-09T11:37:17;0.53;;;0.53;;
20699;SDS011;10511;51.232;9.420;2022-09-09T11:40:19;0.60;;;0.60;;
20699;SDS011;10511;51.232;9.420;2022-09-09T11:43:00;0.50;;;0.50;;
20699;SDS011;10511;51.232;9.420;2022-09-09T11:45:29;0.60;;;0.60;;
20699;SDS011;10511;51.232;9.420;2022-09-09T11:47:57;0.60;;;0.60;;
20699;SDS011;10511;51.232;9.420;2022-09-09T11:50:31;0.67;;;0.67;;
20699;SDS011;10511;51.232;9.420;2022-09-09T11:53:04;0.60;;;0.60;;
20699;SDS011;10511;51.232;9.420;2022-09-09T11:55:48;0.60;;;0.60;;
20699;SDS011;10511;51.232;9.420;2022-09-09T11:58:30;0.53;;;0.53;;
20699;SDS011;10511;51.232;9.420;2022-09-09T12:01:12;0.60;;;0.60;;
20699;SDS011;10511;51.232;9.420;2022-09-09T12:03:41;0.60;;;0.60;;
20699;SDS011;10511;51.232;9.420;2022-09-09T12:06:13;0.60;;;0.60;;
20699;SDS011;10511;51.232;9.420;2022-09-09T12:08:44;0.50;;;0.50;;
20699;SDS011;10511;51.232;9.420;2022-09-09T12:11:23;0.60;;;0.60;;
20699;SDS011;10511;51.232;9.420;2022-09-09T12:13:52;0.60;;;0.60;;
20699;SDS011;10511;51.232;9.420;2022-09-09T12:16:31;0.60;;;0.60;;
20699;SDS011;10511;51.232;9.420;2022-09-09T12:19:03;0.70;;;0.70;;
20699;SDS011;10511;51.232;9.420;2022-09-09T12:21:35;0.60;;;0.60;;
20699;SDS011;10511;51.232;9.420;2022-09-09T12:24:08;0.60;;;0.60;;
20699;SDS011;10511;51.232;9.420;2022-09-09T12:26:37;0.70;;;0.70;;
20699;SDS011;10511;51.232;9.420;2022-09-09T12:29:12;0.60;;;0.60;;
20699;SDS011;10511;51.232;9.420;2022-09-09T12:31:49;0.63;;;0.63;;
20699;SDS011;10511;51.232;9.420;2022-09-09T12:34:25;0.70;;;0.70;;
20699;SDS011;10511;51.232;9.420;2022-09-09T12:37:05;0.60;;;0.60;;
20699;SDS011;10511;51.232;9.420;2022-09-09T12:39:41;0.60;;;0.60;;
20699;SDS011;10511;51.232;9.420;2022-09-09T12:42:20;0.60;;;0.60;;
20699;SDS011;10511;51.232;9.420;2022-09-09T12:44:51;0.70;;;0.70;;
20699;SDS011;10511;51.232;9.420;2022-09-09T12:47:23;0.67;;;0.67;;
20699;SDS011;10511;51.232;9.420;2022-09-09T12:49:55;0.60;;;0.60;;
20699;SDS011;10511;51.232;9.420;2022-09-09T12:52:25;0.50;;;0.50;;
20699;SDS011;10511;51.232;9.420;2022-09-09T12:54:56;0.60;;;0.60;;
20699;SDS011;10511;51.232;9.420;2022-09-09T12:57:26;0.50;;;0.50;;
20699;SDS011;10511;51.232;9.420;2022-09-09T13:00:04;0.60;;;0.60;;
20699;SDS011;10511;51.232;9.420;2022-09-09T13:02:35;0.60;;;0.60;;
20699;SDS011;10511;51.232;9.420;2022-09-09T13:05:13;0.60;;;0.60;;
20699;SDS011;10511;51.232;9.420;2022-09-09T13:07:43;0.60;;;0.60;;
20699;SDS011;10511;51.232;9.420;2022-09-09T13:10:11;0.60;;;0.60;;
20699;SDS011;10511;51.232;9.420;2022-09-09T13:12:39;0.50;;;0.50;;
20699;SDS011;10511;51.232;9.420;2022-09-09T13:15:10;0.50;;;0.50;;
20699;SDS011;10511;51.232;9.420;2022-09-09T13:17:49;0.60;;;0.60;;
20699;SDS011;10511;51.232;9.420;2022-09-09T13:20:18;0.57;;;0.57;;
20699;SDS011;10511;51.232;9.420;2022-09-09T13:22:48;0.50;;;0.50;;
20699;SDS011;10511;51.232;9.420;2022-09-09T13:25:18;0.50;;;0.50;;
20699;SDS011;10511;51.232;9.420;2022-09-09T13:27:57;0.50;;;0.50;;
20699;SDS011;10511;51.232;9.420;2022-09-09T13:30:26;0.60;;;0.60;;
20699;SDS011;10511;51.232;9.420;2022-09-09T13:33:02;0.60;;;0.60;;
20699;SDS011;10511;51.232;9.420;2022-09-09T13:35:30;0.50;;;0.50;;
20699;SDS011;10511;51.232;9.420;2022-09-09T13:37:59;0.60;;;0.60;;
20699;SDS011;10511;51.232;9.420;2022-09-09T13:40:34;0.60;;;0.60;;
20699;SDS011;10511;51.232;9.420;2022-09-09T13:43:02;0.50;;;0.50;;
20699;SDS011;10511;51.232;9.420;2022-09-09T13:45:30;0.50;;;0.50;;
20699;SDS011;10511;51.232;9.420;2022-09-09T13:47:59;0.50;;;0.50;;
20699;SDS011;10511;51.232;9.420;2022-09-09T13:50:36;0.60;;;0.60;;
20699;SDS011;10511;51.232;9.420;2022-09-09T13:53:04;0.50;;;0.50;;
20699;SDS011;10511;51.232;9.420;2022-09-09T13:55:31;0.50;;;0.50;;
20699;SDS011;10511;51.232;9.420;2022-09-09T13:57:58;0.50;;;0.50;;
20699;SDS011;10511;51.232;9.420;2022-09-09T14:00:28;0.70;;;0.70;;
20699;SDS011;10511;51.232;9.420;2022-09-09T14:02:56;0.60;;;0.60;;
20699;SDS011;10511;51.232;9.420;2022-09-09T14:05:23;0.53;;;0.53;;
20699;SDS011;10511;51.232;9.420;2022-09-09T14:07:50;0.63;;;0.63;;
20699;SDS011;10511;51.232;9.420;2022-09-09T14:10:19;0.50;;;0.50;;
20699;SDS011;10511;51.232;9.420;2022-09-09T14:12:46;0.50;;;0.50;;
20699;SDS011;10511;51.232;9.420;2022-09-09T14:15:13;0.50;;;0.50;;
20699;SDS011;10511;51.232;9.420;2022-09-09T14:17:41;0.50;;;0.50;;
20699;SDS011;10511;51.232;9.420;2022-09-09T14:20:08;0.60;;;0.60;;
20699;SDS011;10511;51.232;9.420;2022-09-09T14:22:36;0.60;;;0.60;;
20699;SDS011;10511;51.232;9.420;2022-09-09T14:25:05;0.57;;;0.57;;
20699;SDS011;10511;51.232;9.420;2022-09-09T14:27:33;0.60;;;0.60;;
20699;SDS011;10511;51.232;9.420;2022-09-09T14:30:00;0.60;;;0.60;;
20699;SDS011;10511;51.232;9.420;2022-09-09T14:32:27;0.50;;;0.50;;
20699;SDS011;10511;51.232;9.420;2022-09-09T14:34:54;0.50;;;0.50;;
20699;SDS011;10511;51.232;9.420;2022-09-09T14:37:21;0.50;;;0.50;;
20699;SDS011;10511;51.232;9.420;2022-09-09T14:39:49;0.50;;;0.50;;
20699;SDS011;10511;51.232;9.420;2022-09-09T14:42:16;0.60;;;0.60;;
20699;SDS011;10511;51.232;9.420;2022-09-09T14:44:45;0.57;;;0.57;;
20699;SDS011;10511;51.232;9.420;2022-09-09T14:47:12;0.50;;;0.50;;
20699;SDS011;10511;51.232;9.420;2022-09-09T14:49:39;0.50;;;0.50;;
20699;SDS011;10511;51.232;9.420;2022-09-09T14:52:06;0.50;;;0.50;;
20699;SDS011;10511;51.232;9.420;2022-09-09T14:54:34;0.60;;;0.60;;
20699;SDS011;10511;51.232;9.420;2022-09-09T14:57:01;0.60;;;0.60;;
20699;SDS011;10511;51.232;9.420;2022-09-09T14:59:28;0.60;;;0.60;;
20699;SDS011;10511;51.232;9.420;2022-09-09T15:01:56;0.50;;;0.50;;
20699;SDS011;10511;51.232;9.420;2022-09-09T15:04:23;0.60;;;0.60;;
20699;SDS011;10511;51.232;9.420;2022-09-09T15:06:50;0.60;;;0.60;;
20699;SDS011;10511;51.232;9.420;2022-09-09T15:09:18;0.70;;;0.70;;
20699;SDS011;10511;51.232;9.420;2022-09-09T15:11:45;0.60;;;0.60;;
20699;SDS011;10511;51.232;9.420;2022-09-09T15:14:12;0.60;;;0.60;;